Nan May — D5KO8 — position and weather

sailwx.info

Track history (hours):
 
Tides and Currents Weather Stations Pressure Air Temp Water Temp Dewpoint Dewpoint Depression Visibility Wind Speed Wind Dir Waves Ship Positions

Nan May

Last reported at 2017-Nov-11 05:00 UTC. Time now 2017-Nov-19 21:59 UTC.
Position N 46°17' W 125°31'.
Warning: this ship's position is 8 days out of date.

Length 228 m; draft 12.9 m.

Type: Cargo ship. MMSI: 636017371.

Date/timePositionNaut miles runAvg speedWind from/ knotsBaromVisibWave heightAir tempDewpointWater temp
2017-Nov-11 05:00N 46°17' W 125°31'712.8
2017-Nov-11 04:26N 46°16' W 125°20'612.9
2017-Nov-11 04:00N 46°15' W 125°12'713.0
2017-Nov-11 03:30N 46°15' W 125°03'612.8
2017-Nov-11 03:00N 46°14' W 124°54'612.8
2017-Nov-11 02:30N 46°13' W 124°44'612.9
2017-Nov-11 02:00N 46°13' W 124°35'612.7
2017-Nov-11 01:30N 46°12' W 124°26'612.7
2017-Nov-11 01:00N 46°12' W 124°17'510.3
2017-Nov-11 00:30N 46°12' W 124°09'5 9.9
2017-Nov-11 00:00N 46°15' W 124°04'5 9.1
2017-Nov-10 23:30N 46°13' W 123°58'4 8.9
2017-Nov-10 23:00N 46°12' W 123°52'4 8.6
2017-Nov-10 22:31N 46°13' W 123°47'510.6
2017-Nov-10 22:00N 46°15' W 123°40'611.3
2017-Nov-10 21:31N 46°16' W 123°32'5 9.6
2017-Nov-10 21:00N 46°13' W 123°25'510.2
2017-Nov-10 20:30N 46°09' W 123°22'612.0
2017-Nov-10 20:00N 46°10' W 123°14'611.3
2017-Nov-10 19:30N 46°10' W 123°06'611.5
2017-Nov-10 19:00N 46°07' W 122°59'2 4.1
2017-Nov-10 18:30N 46°06' W 122°56'0 0.1
2017-Nov-10 17:52N 46°06' W 122°56'0 0.1
2017-Nov-10 17:28N 46°06' W 122°56'0 0.0
2017-Nov-10 16:55N 46°06' W 122°56'0 0.0
2017-Nov-10 16:28N 46°06' W 122°56'0 0.0
2017-Nov-10 15:58N 46°06' W 122°56'0 0.1
2017-Nov-10 15:25N 46°06' W 122°56'0 0.1
2017-Nov-10 14:58N 46°06' W 122°56'0 0.0
2017-Nov-10 14:16N 46°06' W 122°56'0 0.0
2017-Nov-10 13:58N 46°06' W 122°56'0 0.0
2017-Nov-10 13:28N 46°06' W 122°56'0 0.0
2017-Nov-10 12:58N 46°06' W 122°56'0 0.0
2017-Nov-10 12:22N 46°06' W 122°56'0 0.0
2017-Nov-10 11:58N 46°06' W 122°56'0 0.0
2017-Nov-10 11:28N 46°06' W 122°56'0 0.0
2017-Nov-10 10:58N 46°06' W 122°56'0 0.0
2017-Nov-10 10:25N 46°06' W 122°56'0 0.0
2017-Nov-10 09:37N 46°06' W 122°56'0 0.2
2017-Nov-10 09:25N 46°06' W 122°56'0 0.1
2017-Nov-10 08:58N 46°06' W 122°56'0 0.1
2017-Nov-10 08:25N 46°06' W 122°56'0 0.1
2017-Nov-10 07:55N 46°06' W 122°56'0 0.0
2017-Nov-10 07:28N 46°06' W 122°56'0 0.0
2017-Nov-10 06:55N 46°06' W 122°56'0 0.1
2017-Nov-10 06:25N 46°06' W 122°56'0 0.0
2017-Nov-10 05:55N 46°06' W 122°56'0 0.0
2017-Nov-10 05:25N 46°06' W 122°56'0 0.0
2017-Nov-10 04:49N 46°06' W 122°56'0 0.0
2017-Nov-10 04:25N 46°06' W 122°56'0 0.0
2017-Nov-10 03:55N 46°06' W 122°56'0 0.0
2017-Nov-10 03:13N 46°06' W 122°56'0 0.0
2017-Nov-10 02:55N 46°06' W 122°56'0 0.0
2017-Nov-10 02:10N 46°06' W 122°56'0 0.0
2017-Nov-10 01:37N 46°06' W 122°56'0 0.0
2017-Nov-10 01:28N 46°06' W 122°56'0 0.0
2017-Nov-10 00:37N 46°06' W 122°56'0 0.0
2017-Nov-10 00:19N 46°06' W 122°56'0 0.0
2017-Nov-09 23:58N 46°06' W 122°56'0 0.0
2017-Nov-09 23:25N 46°06' W 122°56'0 0.0
2017-Nov-09 22:58N 46°06' W 122°56'0 0.0
2017-Nov-09 22:16N 46°06' W 122°56'0 0.0
2017-Nov-09 21:58N 46°06' W 122°56'0 0.0
2017-Nov-09 21:22N 46°06' W 122°56'0 0.0
2017-Nov-09 20:55N 46°06' W 122°56'0 0.0
2017-Nov-09 20:28N 46°06' W 122°56'0 0.0
2017-Nov-09 19:55N 46°06' W 122°56'0 0.0
2017-Nov-09 19:22N 46°06' W 122°56'0 0.0
2017-Nov-09 18:55N 46°06' W 122°56'0 0.0
2017-Nov-09 18:28N 46°06' W 122°56'0 0.0
2017-Nov-09 17:55N 46°06' W 122°56'0 0.0
2017-Nov-09 17:25N 46°06' W 122°56'0 0.0
2017-Nov-09 16:58N 46°06' W 122°56'0 0.0
2017-Nov-09 16:25N 46°06' W 122°56'0 0.0
2017-Nov-09 15:55N 46°06' W 122°56'0 0.0
2017-Nov-09 15:28N 46°06' W 122°56'0 0.0
2017-Nov-09 14:58N 46°06' W 122°56'0 0.0
2017-Nov-09 14:25N 46°06' W 122°56'0 0.0
2017-Nov-09 13:58N 46°06' W 122°56'0 0.0
2017-Nov-09 13:25N 46°06' W 122°56'0 0.0
2017-Nov-09 12:55N 46°06' W 122°56'0 0.0
2017-Nov-09 12:22N 46°06' W 122°56'0 0.0
2017-Nov-09 11:55N 46°06' W 122°56'0 0.0
2017-Nov-09 11:19N 46°06' W 122°56'0 0.0
2017-Nov-09 10:58N 46°06' W 122°56'0 0.0
2017-Nov-09 10:28N 46°06' W 122°56'0 0.0
2017-Nov-09 09:58N 46°06' W 122°56'0 0.0
2017-Nov-09 09:28N 46°06' W 122°56'0 0.0
2017-Nov-09 08:55N 46°06' W 122°56'0 0.0
2017-Nov-09 08:25N 46°06' W 122°56'0 0.0
2017-Nov-09 07:55N 46°06' W 122°56'0 0.0
2017-Nov-09 07:28N 46°06' W 122°56'0 0.0
2017-Nov-09 06:58N 46°06' W 122°56'0 0.0
2017-Nov-09 06:25N 46°06' W 122°56'0 0.0
2017-Nov-09 05:40N 46°06' W 122°56'0 0.0
2017-Nov-09 05:28N 46°06' W 122°56'0 0.0
2017-Nov-09 04:58N 46°06' W 122°56'0 0.0
2017-Nov-09 04:28N 46°06' W 122°56'0 0.0
2017-Nov-09 03:55N 46°06' W 122°56'0 0.0
2017-Nov-09 03:28N 46°06' W 122°56'0 0.0
2017-Nov-09 02:58N 46°06' W 122°56'0 0.0
2017-Nov-09 02:28N 46°06' W 122°56'0 0.0
2017-Nov-09 01:58N 46°06' W 122°56'0 0.0
2017-Nov-09 01:25N 46°06' W 122°56'0 0.0
2017-Nov-09 00:25N 46°06' W 122°56'0 0.0
2017-Nov-08 23:55N 46°06' W 122°56'0 0.0
2017-Nov-08 23:25N 46°06' W 122°56'0 0.0
2017-Nov-08 22:58N 46°06' W 122°56'0 0.0
2017-Nov-08 22:25N 46°06' W 122°56'0 0.0
2017-Nov-08 21:58N 46°06' W 122°56'0 0.0
2017-Nov-08 21:25N 46°06' W 122°56'0 0.0
2017-Nov-08 20:55N 46°06' W 122°56'0 0.0
2017-Nov-08 20:22N 46°06' W 122°56'0 0.0
2017-Nov-08 19:58N 46°06' W 122°56'0 0.0
2017-Nov-08 19:19N 46°06' W 122°56'0 0.0
2017-Nov-08 18:55N 46°06' W 122°56'0 0.0
2017-Nov-08 18:28N 46°06' W 122°56'0 0.0
2017-Nov-08 17:52N 46°06' W 122°56'0 0.0
2017-Nov-08 17:25N 46°06' W 122°56'0 0.0
2017-Nov-08 16:58N 46°06' W 122°56'0 0.0
2017-Nov-08 16:25N 46°06' W 122°56'0 0.0
2017-Nov-08 15:58N 46°06' W 122°56'0 0.0
2017-Nov-08 15:19N 46°06' W 122°56'0 0.0
2017-Nov-08 14:58N 46°06' W 122°56'0 0.0
2017-Nov-08 14:07N 46°06' W 122°56'0 0.0
2017-Nov-08 13:58N 46°06' W 122°56'0 0.0
2017-Nov-08 13:18N 46°06' W 122°56'0 0.8
2017-Nov-08 13:01N 46°06' W 122°57'3 5.7
2017-Nov-08 12:30N 46°08' W 122°60'713.2
2017-Nov-08 12:00N 46°11' W 123°08'713.1
2017-Nov-08 11:30N 46°09' W 123°17'611.0
2017-Nov-08 11:01N 46°10' W 123°25'612.0
2017-Nov-08 10:30N 46°16' W 123°27'711.2
2017-Nov-08 09:55N 46°15' W 123°37'512.7
2017-Nov-08 09:30N 46°14' W 123°44'510.3
2017-Nov-08 09:01N 46°12' W 123°51'612.8
2017-Nov-08 08:30N 46°14' W 123°59'612.0
2017-Nov-08 08:00N 46°14' W 124°08'612.0
2017-Nov-08 07:30N 46°12' W 124°16'611.4
2017-Nov-08 07:00N 46°12' W 124°24'611.4
2017-Nov-08 06:30N 46°13' W 124°33'611.7
2017-Nov-08 06:00N 46°13' W 124°41'611.4
2017-Nov-08 05:27N 46°14' W 124°50'511.1
2017-Nov-08 05:00N 46°15' W 124°57'811.0
2017-Nov-08 04:15N 46°15' W 125°09'311.1
2017-Nov-08 04:00N 46°15' W 125°13'510.8
2017-Nov-08 03:30N 46°16' W 125°21'510.3
2017-Nov-08 03:00N 46°17' W 125°28'610.7
2017-Nov-08 02:25N 46°17' W 125°37'  
Track history (hours):
 
Tides and Currents Weather Stations Pressure Air Temp Water Temp Dewpoint Dewpoint Depression Visibility Wind Speed Wind Dir Waves Ship Positions

Nan May

Last reported at 2017-Nov-11 05:00 UTC. Time now 2017-Nov-19 21:59 UTC.
Position N 46°17' W 125°31'.
Warning: this ship's position is 8 days out of date.

Length 228 m; draft 12.9 m.

Type: Cargo ship. MMSI: 636017371.

Date/timePositionNaut miles runAvg speedWind from/ knotsBaromVisibWave heightAir tempDewpointWater temp
2017-Nov-11 05:00N 46°17' W 125°31'712.8
2017-Nov-11 04:26N 46°16' W 125°20'612.9
2017-Nov-11 04:00N 46°15' W 125°12'713.0
2017-Nov-11 03:30N 46°15' W 125°03'612.8
2017-Nov-11 03:00N 46°14' W 124°54'612.8
2017-Nov-11 02:30N 46°13' W 124°44'612.9
2017-Nov-11 02:00N 46°13' W 124°35'612.7
2017-Nov-11 01:30N 46°12' W 124°26'612.7
2017-Nov-11 01:00N 46°12' W 124°17'510.3
2017-Nov-11 00:30N 46°12' W 124°09'5 9.9
2017-Nov-11 00:00N 46°15' W 124°04'5 9.1
2017-Nov-10 23:30N 46°13' W 123°58'4 8.9
2017-Nov-10 23:00N 46°12' W 123°52'4 8.6
2017-Nov-10 22:31N 46°13' W 123°47'510.6
2017-Nov-10 22:00N 46°15' W 123°40'611.3
2017-Nov-10 21:31N 46°16' W 123°32'5 9.6
2017-Nov-10 21:00N 46°13' W 123°25'510.2
2017-Nov-10 20:30N 46°09' W 123°22'612.0
2017-Nov-10 20:00N 46°10' W 123°14'611.3
2017-Nov-10 19:30N 46°10' W 123°06'611.5
2017-Nov-10 19:00N 46°07' W 122°59'2 4.1
2017-Nov-10 18:30N 46°06' W 122°56'0 0.1
2017-Nov-10 17:52N 46°06' W 122°56'0 0.1
2017-Nov-10 17:28N 46°06' W 122°56'0 0.0
2017-Nov-10 16:55N 46°06' W 122°56'0 0.0
2017-Nov-10 16:28N 46°06' W 122°56'0 0.0
2017-Nov-10 15:58N 46°06' W 122°56'0 0.1
2017-Nov-10 15:25N 46°06' W 122°56'0 0.1
2017-Nov-10 14:58N 46°06' W 122°56'0 0.0
2017-Nov-10 14:16N 46°06' W 122°56'0 0.0
2017-Nov-10 13:58N 46°06' W 122°56'0 0.0
2017-Nov-10 13:28N 46°06' W 122°56'0 0.0
2017-Nov-10 12:58N 46°06' W 122°56'0 0.0
2017-Nov-10 12:22N 46°06' W 122°56'0 0.0
2017-Nov-10 11:58N 46°06' W 122°56'0 0.0
2017-Nov-10 11:28N 46°06' W 122°56'0 0.0
2017-Nov-10 10:58N 46°06' W 122°56'0 0.0
2017-Nov-10 10:25N 46°06' W 122°56'0 0.0
2017-Nov-10 09:37N 46°06' W 122°56'0 0.2
2017-Nov-10 09:25N 46°06' W 122°56'0 0.1
2017-Nov-10 08:58N 46°06' W 122°56'0 0.1
2017-Nov-10 08:25N 46°06' W 122°56'0 0.1
2017-Nov-10 07:55N 46°06' W 122°56'0 0.0
2017-Nov-10 07:28N 46°06' W 122°56'0 0.0
2017-Nov-10 06:55N 46°06' W 122°56'0 0.1
2017-Nov-10 06:25N 46°06' W 122°56'0 0.0
2017-Nov-10 05:55N 46°06' W 122°56'0 0.0
2017-Nov-10 05:25N 46°06' W 122°56'0 0.0
2017-Nov-10 04:49N 46°06' W 122°56'0 0.0
2017-Nov-10 04:25N 46°06' W 122°56'0 0.0
2017-Nov-10 03:55N 46°06' W 122°56'0 0.0
2017-Nov-10 03:13N 46°06' W 122°56'0 0.0
2017-Nov-10 02:55N 46°06' W 122°56'0 0.0
2017-Nov-10 02:10N 46°06' W 122°56'0 0.0
2017-Nov-10 01:37N 46°06' W 122°56'0 0.0
2017-Nov-10 01:28N 46°06' W 122°56'0 0.0
2017-Nov-10 00:37N 46°06' W 122°56'0 0.0
2017-Nov-10 00:19N 46°06' W 122°56'0 0.0
2017-Nov-09 23:58N 46°06' W 122°56'0 0.0
2017-Nov-09 23:25N 46°06' W 122°56'0 0.0
2017-Nov-09 22:58N 46°06' W 122°56'0 0.0
2017-Nov-09 22:16N 46°06' W 122°56'0 0.0
2017-Nov-09 21:58N 46°06' W 122°56'0 0.0
2017-Nov-09 21:22N 46°06' W 122°56'0 0.0
2017-Nov-09 20:55N 46°06' W 122°56'0 0.0
2017-Nov-09 20:28N 46°06' W 122°56'0 0.0
2017-Nov-09 19:55N 46°06' W 122°56'0 0.0
2017-Nov-09 19:22N 46°06' W 122°56'0 0.0
2017-Nov-09 18:55N 46°06' W 122°56'0 0.0
2017-Nov-09 18:28N 46°06' W 122°56'0 0.0
2017-Nov-09 17:55N 46°06' W 122°56'0 0.0
2017-Nov-09 17:25N 46°06' W 122°56'0 0.0
2017-Nov-09 16:58N 46°06' W 122°56'0 0.0
2017-Nov-09 16:25N 46°06' W 122°56'0 0.0
2017-Nov-09 15:55N 46°06' W 122°56'0 0.0
2017-Nov-09 15:28N 46°06' W 122°56'0 0.0
2017-Nov-09 14:58N 46°06' W 122°56'0 0.0
2017-Nov-09 14:25N 46°06' W 122°56'0 0.0
2017-Nov-09 13:58N 46°06' W 122°56'0 0.0
2017-Nov-09 13:25N 46°06' W 122°56'0 0.0
2017-Nov-09 12:55N 46°06' W 122°56'0 0.0
2017-Nov-09 12:22N 46°06' W 122°56'0 0.0
2017-Nov-09 11:55N 46°06' W 122°56'0 0.0
2017-Nov-09 11:19N 46°06' W 122°56'0 0.0
2017-Nov-09 10:58N 46°06' W 122°56'0 0.0
2017-Nov-09 10:28N 46°06' W 122°56'0 0.0
2017-Nov-09 09:58N 46°06' W 122°56'0 0.0
2017-Nov-09 09:28N 46°06' W 122°56'0 0.0
2017-Nov-09 08:55N 46°06' W 122°56'0 0.0
2017-Nov-09 08:25N 46°06' W 122°56'0 0.0
2017-Nov-09 07:55N 46°06' W 122°56'0 0.0
2017-Nov-09 07:28N 46°06' W 122°56'0 0.0
2017-Nov-09 06:58N 46°06' W 122°56'0 0.0
2017-Nov-09 06:25N 46°06' W 122°56'0 0.0
2017-Nov-09 05:40N 46°06' W 122°56'0 0.0
2017-Nov-09 05:28N 46°06' W 122°56'0 0.0
2017-Nov-09 04:58N 46°06' W 122°56'0 0.0
2017-Nov-09 04:28N 46°06' W 122°56'0 0.0
2017-Nov-09 03:55N 46°06' W 122°56'0 0.0
2017-Nov-09 03:28N 46°06' W 122°56'0 0.0
2017-Nov-09 02:58N 46°06' W 122°56'0 0.0
2017-Nov-09 02:28N 46°06' W 122°56'0 0.0
2017-Nov-09 01:58N 46°06' W 122°56'0 0.0
2017-Nov-09 01:25N 46°06' W 122°56'0 0.0
2017-Nov-09 00:25N 46°06' W 122°56'0 0.0
2017-Nov-08 23:55N 46°06' W 122°56'0 0.0
2017-Nov-08 23:25N 46°06' W 122°56'0 0.0
2017-Nov-08 22:58N 46°06' W 122°56'0 0.0
2017-Nov-08 22:25N 46°06' W 122°56'0 0.0
2017-Nov-08 21:58N 46°06' W 122°56'0 0.0
2017-Nov-08 21:25N 46°06' W 122°56'0 0.0
2017-Nov-08 20:55N 46°06' W 122°56'0 0.0
2017-Nov-08 20:22N 46°06' W 122°56'0 0.0
2017-Nov-08 19:58N 46°06' W 122°56'0 0.0
2017-Nov-08 19:19N 46°06' W 122°56'0 0.0
2017-Nov-08 18:55N 46°06' W 122°56'0 0.0
2017-Nov-08 18:28N 46°06' W 122°56'0 0.0
2017-Nov-08 17:52N 46°06' W 122°56'0 0.0
2017-Nov-08 17:25N 46°06' W 122°56'0 0.0
2017-Nov-08 16:58N 46°06' W 122°56'0 0.0
2017-Nov-08 16:25N 46°06' W 122°56'0 0.0
2017-Nov-08 15:58N 46°06' W 122°56'0 0.0
2017-Nov-08 15:19N 46°06' W 122°56'0 0.0
2017-Nov-08 14:58N 46°06' W 122°56'0 0.0
2017-Nov-08 14:07N 46°06' W 122°56'0 0.0
2017-Nov-08 13:58N 46°06' W 122°56'0 0.0
2017-Nov-08 13:18N 46°06' W 122°56'0 0.8
2017-Nov-08 13:01N 46°06' W 122°57'3 5.7
2017-Nov-08 12:30N 46°08' W 122°60'713.2
2017-Nov-08 12:00N 46°11' W 123°08'713.1
2017-Nov-08 11:30N 46°09' W 123°17'611.0
2017-Nov-08 11:01N 46°10' W 123°25'612.0
2017-Nov-08 10:30N 46°16' W 123°27'711.2
2017-Nov-08 09:55N 46°15' W 123°37'512.7
2017-Nov-08 09:30N 46°14' W 123°44'510.3
2017-Nov-08 09:01N 46°12' W 123°51'612.8
2017-Nov-08 08:30N 46°14' W 123°59'612.0
2017-Nov-08 08:00N 46°14' W 124°08'612.0
2017-Nov-08 07:30N 46°12' W 124°16'611.4
2017-Nov-08 07:00N 46°12' W 124°24'611.4
2017-Nov-08 06:30N 46°13' W 124°33'611.7
2017-Nov-08 06:00N 46°13' W 124°41'611.4
2017-Nov-08 05:27N 46°14' W 124°50'511.1
2017-Nov-08 05:00N 46°15' W 124°57'811.0
2017-Nov-08 04:15N 46°15' W 125°09'311.1
2017-Nov-08 04:00N 46°15' W 125°13'510.8
2017-Nov-08 03:30N 46°16' W 125°21'510.3
2017-Nov-08 03:00N 46°17' W 125°28'610.7
2017-Nov-08 02:25N 46°17' W 125°37'  

Dump ship's entire track history